KPKB/PKB METAR and TAF weather

Enter ICAO airport designator
Station Type Date Time Source
KPKB METAR 2019/06/19 00:53 UTC NOAA

KPKB 190053Z 13003KT 10SM OVC065 22/21 A2991 RMK AO2 SLP122 T02220211


Station Type Date Time Source
KPKB Decoded METAR 2019/06/19 00:53 UTC NOAA

MID-OHIO VALLEY RGNL AIRPORT, WV, United States (KPKB) 39-20N 81-27W
Jun 18, 2019 - 08:53 PM EDT / 2019.06.19 0053 UTC
Wind: from the SE (130 degrees) at 3 MPH (3 KT):0
Visibility: 10 mile(s):0
Sky conditions: overcast
Temperature: 72.0 F (22.2 C)
Dew Point: 70.0 F (21.1 C)
Relative Humidity: 93%
Pressure (altimeter): 29.91 in. Hg (1012 hPa)
ob: KPKB 190053Z 13003KT 10SM OVC065 22/21 A2991 RMK AO2 SLP122 T02220211
cycle: 1

Station Type Date Time Source
KPKB TAF 2019/06/18 21:03 UTC NOAA

TAF
AMD KPKB 182101Z 1821/1918 22006KT P6SM -SHRA SCT025 OVC045
TEMPO 1821/1823 2SM RA BR
FM190000 19004KT P6SM BKN050
FM190600 VRB03KT 4SM BR BKN015
FM191000 VRB03KT 4SM BR BKN007
FM191400 21004KT P6SM -SHRA OVC015
FM191600 VRB03KT P6SM -SHRA VCTS BKN025CB

Example: see airport list